sensor_id;sensor_type;location;lat;lon;timestamp;temperature;humidity
53962;DHT22;39868;53.398;6.564;2023-12-22T00:00:07;8.70;79.40
53962;DHT22;39868;53.398;6.564;2023-12-22T00:02:35;8.70;80.10
53962;DHT22;39868;53.398;6.564;2023-12-22T00:05:02;8.70;81.40
53962;DHT22;39868;53.398;6.564;2023-12-22T00:07:30;8.70;82.00
53962;DHT22;39868;53.398;6.564;2023-12-22T00:09:57;8.60;81.50
53962;DHT22;39868;53.398;6.564;2023-12-22T00:12:24;8.50;80.80
53962;DHT22;39868;53.398;6.564;2023-12-22T00:14:52;8.40;80.20
53962;DHT22;39868;53.398;6.564;2023-12-22T00:17:19;8.30;80.50
53962;DHT22;39868;53.398;6.564;2023-12-22T00:19:46;8.20;80.80
53962;DHT22;39868;53.398;6.564;2023-12-22T00:22:13;8.10;81.20
53962;DHT22;39868;53.398;6.564;2023-12-22T00:24:41;8.10;81.70
53962;DHT22;39868;53.398;6.564;2023-12-22T00:27:08;8.10;82.10
53962;DHT22;39868;53.398;6.564;2023-12-22T00:29:36;8.10;82.20
53962;DHT22;39868;53.398;6.564;2023-12-22T00:32:04;8.10;82.30
53962;DHT22;39868;53.398;6.564;2023-12-22T00:34:32;8.10;82.30
53962;DHT22;39868;53.398;6.564;2023-12-22T00:36:59;8.10;81.90
53962;DHT22;39868;53.398;6.564;2023-12-22T00:39:27;8.10;81.70
53962;DHT22;39868;53.398;6.564;2023-12-22T00:41:54;8.10;81.90
53962;DHT22;39868;53.398;6.564;2023-12-22T00:44:21;8.10;80.90
53962;DHT22;39868;53.398;6.564;2023-12-22T00:46:49;8.20;80.40
53962;DHT22;39868;53.398;6.564;2023-12-22T00:49:16;8.20;80.50
53962;DHT22;39868;53.398;6.564;2023-12-22T00:51:45;8.20;80.60
53962;DHT22;39868;53.398;6.564;2023-12-22T00:54:12;8.30;80.50
53962;DHT22;39868;53.398;6.564;2023-12-22T00:56:39;8.30;80.50
53962;DHT22;39868;53.398;6.564;2023-12-22T00:59:07;8.40;80.10
53962;DHT22;39868;53.398;6.564;2023-12-22T01:01:38;8.40;80.40
53962;DHT22;39868;53.398;6.564;2023-12-22T01:04:05;8.40;80.30
53962;DHT22;39868;53.398;6.564;2023-12-22T01:06:37;8.50;79.80
53962;DHT22;39868;53.398;6.564;2023-12-22T01:09:04;8.50;79.30
53962;DHT22;39868;53.398;6.564;2023-12-22T01:11:32;8.60;78.50
53962;DHT22;39868;53.398;6.564;2023-12-22T01:13:59;8.60;77.00
53962;DHT22;39868;53.398;6.564;2023-12-22T01:16:27;8.60;75.10
53962;DHT22;39868;53.398;6.564;2023-12-22T01:18:54;8.60;73.90
53962;DHT22;39868;53.398;6.564;2023-12-22T01:21:22;8.70;74.10
53962;DHT22;39868;53.398;6.564;2023-12-22T01:23:49;8.70;74.50
53962;DHT22;39868;53.398;6.564;2023-12-22T01:26:16;8.70;73.50
53962;DHT22;39868;53.398;6.564;2023-12-22T01:28:43;8.70;73.30
53962;DHT22;39868;53.398;6.564;2023-12-22T01:31:11;8.70;74.50
53962;DHT22;39868;53.398;6.564;2023-12-22T01:33:38;8.70;74.20
53962;DHT22;39868;53.398;6.564;2023-12-22T01:36:05;8.80;74.70
53962;DHT22;39868;53.398;6.564;2023-12-22T01:38:33;8.80;74.60
53962;DHT22;39868;53.398;6.564;2023-12-22T01:41:00;8.80;75.60
53962;DHT22;39868;53.398;6.564;2023-12-22T01:43:27;8.80;75.20
53962;DHT22;39868;53.398;6.564;2023-12-22T01:45:56;8.90;75.40
53962;DHT22;39868;53.398;6.564;2023-12-22T01:48:25;8.90;76.40
53962;DHT22;39868;53.398;6.564;2023-12-22T01:50:53;8.90;77.00
53962;DHT22;39868;53.398;6.564;2023-12-22T01:53:22;8.90;77.10
53962;DHT22;39868;53.398;6.564;2023-12-22T01:55:51;8.90;77.00
53962;DHT22;39868;53.398;6.564;2023-12-22T01:58:20;8.90;77.10
53962;DHT22;39868;53.398;6.564;2023-12-22T02:00:49;8.90;77.40
53962;DHT22;39868;53.398;6.564;2023-12-22T02:03:16;8.90;77.40
53962;DHT22;39868;53.398;6.564;2023-12-22T02:05:44;8.90;77.70
53962;DHT22;39868;53.398;6.564;2023-12-22T02:08:12;8.90;78.40
53962;DHT22;39868;53.398;6.564;2023-12-22T02:10:39;8.90;78.50
53962;DHT22;39868;53.398;6.564;2023-12-22T02:13:07;8.90;78.50
53962;DHT22;39868;53.398;6.564;2023-12-22T02:15:36;8.80;78.20
53962;DHT22;39868;53.398;6.564;2023-12-22T02:18:07;8.80;78.00
53962;DHT22;39868;53.398;6.564;2023-12-22T02:20:36;8.70;77.70
53962;DHT22;39868;53.398;6.564;2023-12-22T02:23:05;8.60;77.80
53962;DHT22;39868;53.398;6.564;2023-12-22T02:25:32;8.60;78.10
53962;DHT22;39868;53.398;6.564;2023-12-22T02:28:07;8.50;78.30
53962;DHT22;39868;53.398;6.564;2023-12-22T02:30:42;8.50;78.60
53962;DHT22;39868;53.398;6.564;2023-12-22T02:33:12;8.50;78.70
53962;DHT22;39868;53.398;6.564;2023-12-22T02:35:42;8.50;78.80
53962;DHT22;39868;53.398;6.564;2023-12-22T02:38:12;8.50;79.80
53962;DHT22;39868;53.398;6.564;2023-12-22T02:40:40;8.50;80.40
53962;DHT22;39868;53.398;6.564;2023-12-22T02:43:08;8.50;80.40
53962;DHT22;39868;53.398;6.564;2023-12-22T02:45:36;8.50;80.40
53962;DHT22;39868;53.398;6.564;2023-12-22T02:48:04;8.40;79.40
53962;DHT22;39868;53.398;6.564;2023-12-22T02:50:31;8.40;79.30
53962;DHT22;39868;53.398;6.564;2023-12-22T02:52:58;8.50;80.00
53962;DHT22;39868;53.398;6.564;2023-12-22T02:55:26;8.40;80.20
53962;DHT22;39868;53.398;6.564;2023-12-22T02:57:53;8.50;80.20
53962;DHT22;39868;53.398;6.564;2023-12-22T03:00:20;8.40;79.80
53962;DHT22;39868;53.398;6.564;2023-12-22T03:02:47;8.30;79.60
53962;DHT22;39868;53.398;6.564;2023-12-22T03:05:16;8.20;79.50
53962;DHT22;39868;53.398;6.564;2023-12-22T03:07:43;8.10;79.50
53962;DHT22;39868;53.398;6.564;2023-12-22T03:10:11;8.00;79.60
53962;DHT22;39868;53.398;6.564;2023-12-22T03:12:38;7.90;79.90
53962;DHT22;39868;53.398;6.564;2023-12-22T03:15:06;7.90;80.20
53962;DHT22;39868;53.398;6.564;2023-12-22T03:17:33;7.90;80.60
53962;DHT22;39868;53.398;6.564;2023-12-22T03:20:01;7.80;80.30
53962;DHT22;39868;53.398;6.564;2023-12-22T03:22:28;7.90;80.40
53962;DHT22;39868;53.398;6.564;2023-12-22T03:24:56;7.90;80.50
53962;DHT22;39868;53.398;6.564;2023-12-22T03:27:23;8.00;81.40
53962;DHT22;39868;53.398;6.564;2023-12-22T03:29:50;8.00;81.30
53962;DHT22;39868;53.398;6.564;2023-12-22T03:32:17;8.10;81.10
53962;DHT22;39868;53.398;6.564;2023-12-22T03:34:45;8.10;80.50
53962;DHT22;39868;53.398;6.564;2023-12-22T03:37:12;8.20;80.60
53962;DHT22;39868;53.398;6.564;2023-12-22T03:39:39;8.20;80.60
53962;DHT22;39868;53.398;6.564;2023-12-22T03:42:06;8.30;80.70
53962;DHT22;39868;53.398;6.564;2023-12-22T03:44:34;8.30;80.80
53962;DHT22;39868;53.398;6.564;2023-12-22T03:47:01;8.40;80.80
53962;DHT22;39868;53.398;6.564;2023-12-22T03:49:28;8.40;81.00
53962;DHT22;39868;53.398;6.564;2023-12-22T03:51:56;8.50;81.50
53962;DHT22;39868;53.398;6.564;2023-12-22T03:54:23;8.50;81.60
53962;DHT22;39868;53.398;6.564;2023-12-22T03:56:50;8.60;81.80
53962;DHT22;39868;53.398;6.564;2023-12-22T03:59:18;8.60;80.80
53962;DHT22;39868;53.398;6.564;2023-12-22T04:01:51;8.50;80.20
53962;DHT22;39868;53.398;6.564;2023-12-22T04:04:19;8.40;80.20
53962;DHT22;39868;53.398;6.564;2023-12-22T04:06:50;8.30;80.50
53962;DHT22;39868;53.398;6.564;2023-12-22T04:09:17;8.20;81.10
53962;DHT22;39868;53.398;6.564;2023-12-22T04:11:44;8.20;81.60
53962;DHT22;39868;53.398;6.564;2023-12-22T04:14:12;8.20;81.60
53962;DHT22;39868;53.398;6.564;2023-12-22T04:16:39;8.10;81.80
53962;DHT22;39868;53.398;6.564;2023-12-22T04:19:06;8.10;82.10
53962;DHT22;39868;53.398;6.564;2023-12-22T04:21:38;8.10;82.30
53962;DHT22;39868;53.398;6.564;2023-12-22T04:24:05;8.20;82.30
53962;DHT22;39868;53.398;6.564;2023-12-22T04:26:33;8.20;81.90
53962;DHT22;39868;53.398;6.564;2023-12-22T04:29:00;8.30;81.20
53962;DHT22;39868;53.398;6.564;2023-12-22T04:31:27;8.30;78.30
53962;DHT22;39868;53.398;6.564;2023-12-22T04:33:54;8.30;78.70
53962;DHT22;39868;53.398;6.564;2023-12-22T04:36:23;8.30;78.60
53962;DHT22;39868;53.398;6.564;2023-12-22T04:38:50;8.40;78.10
53962;DHT22;39868;53.398;6.564;2023-12-22T04:41:17;8.40;77.30
53962;DHT22;39868;53.398;6.564;2023-12-22T04:43:44;8.40;76.90
53962;DHT22;39868;53.398;6.564;2023-12-22T04:46:12;8.50;76.60
53962;DHT22;39868;53.398;6.564;2023-12-22T04:48:39;8.50;75.60
53962;DHT22;39868;53.398;6.564;2023-12-22T04:51:06;8.60;75.20
53962;DHT22;39868;53.398;6.564;2023-12-22T04:53:34;8.60;75.40
53962;DHT22;39868;53.398;6.564;2023-12-22T04:56:01;8.60;76.50
53962;DHT22;39868;53.398;6.564;2023-12-22T04:58:28;8.70;76.80
53962;DHT22;39868;53.398;6.564;2023-12-22T05:00:55;8.70;76.40
53962;DHT22;39868;53.398;6.564;2023-12-22T05:03:23;8.70;75.60
53962;DHT22;39868;53.398;6.564;2023-12-22T05:05:50;8.80;75.60
53962;DHT22;39868;53.398;6.564;2023-12-22T05:08:17;8.80;75.50
53962;DHT22;39868;53.398;6.564;2023-12-22T05:10:44;8.80;76.20
53962;DHT22;39868;53.398;6.564;2023-12-22T05:13:12;8.90;76.50
53962;DHT22;39868;53.398;6.564;2023-12-22T05:15:39;8.90;76.80
53962;DHT22;39868;53.398;6.564;2023-12-22T05:18:06;8.90;76.80
53962;DHT22;39868;53.398;6.564;2023-12-22T05:20:34;9.00;76.70
53962;DHT22;39868;53.398;6.564;2023-12-22T05:23:01;9.00;76.90
53962;DHT22;39868;53.398;6.564;2023-12-22T05:25:29;9.00;76.60
53962;DHT22;39868;53.398;6.564;2023-12-22T05:27:57;9.00;76.40
53962;DHT22;39868;53.398;6.564;2023-12-22T05:30:24;9.00;75.70
53962;DHT22;39868;53.398;6.564;2023-12-22T05:32:51;9.00;76.20
53962;DHT22;39868;53.398;6.564;2023-12-22T05:35:18;9.10;76.00
53962;DHT22;39868;53.398;6.564;2023-12-22T05:37:46;9.10;76.20
53962;DHT22;39868;53.398;6.564;2023-12-22T05:40:15;9.10;76.50
53962;DHT22;39868;53.398;6.564;2023-12-22T05:42:43;9.10;76.70
53962;DHT22;39868;53.398;6.564;2023-12-22T05:45:10;9.10;76.90
53962;DHT22;39868;53.398;6.564;2023-12-22T05:47:38;9.10;76.90
53962;DHT22;39868;53.398;6.564;2023-12-22T05:50:07;9.10;76.60
53962;DHT22;39868;53.398;6.564;2023-12-22T05:52:34;9.20;76.00
53962;DHT22;39868;53.398;6.564;2023-12-22T05:55:02;9.20;76.60
53962;DHT22;39868;53.398;6.564;2023-12-22T05:57:29;9.20;76.40
53962;DHT22;39868;53.398;6.564;2023-12-22T05:59:56;9.20;76.70
53962;DHT22;39868;53.398;6.564;2023-12-22T06:02:25;9.20;76.60
53962;DHT22;39868;53.398;6.564;2023-12-22T06:04:52;9.20;76.90
53962;DHT22;39868;53.398;6.564;2023-12-22T06:07:20;9.30;76.60
53962;DHT22;39868;53.398;6.564;2023-12-22T06:09:47;9.20;75.70
53962;DHT22;39868;53.398;6.564;2023-12-22T06:12:15;9.30;76.00
53962;DHT22;39868;53.398;6.564;2023-12-22T06:14:42;9.20;75.80
53962;DHT22;39868;53.398;6.564;2023-12-22T06:17:09;9.30;75.80
53962;DHT22;39868;53.398;6.564;2023-12-22T06:19:36;9.30;75.20
53962;DHT22;39868;53.398;6.564;2023-12-22T06:22:04;9.30;75.10
53962;DHT22;39868;53.398;6.564;2023-12-22T06:24:34;9.30;75.30
53962;DHT22;39868;53.398;6.564;2023-12-22T06:27:03;9.30;75.10
53962;DHT22;39868;53.398;6.564;2023-12-22T06:29:30;9.40;75.00
53962;DHT22;39868;53.398;6.564;2023-12-22T06:31:58;9.40;74.60
53962;DHT22;39868;53.398;6.564;2023-12-22T06:34:26;9.40;74.80
53962;DHT22;39868;53.398;6.564;2023-12-22T06:36:53;9.40;75.20
53962;DHT22;39868;53.398;6.564;2023-12-22T06:39:20;9.40;75.70
53962;DHT22;39868;53.398;6.564;2023-12-22T06:41:48;9.40;76.20
53962;DHT22;39868;53.398;6.564;2023-12-22T06:44:15;9.40;76.50
53962;DHT22;39868;53.398;6.564;2023-12-22T06:46:42;9.40;76.50
53962;DHT22;39868;53.398;6.564;2023-12-22T06:49:10;9.50;76.30
53962;DHT22;39868;53.398;6.564;2023-12-22T06:51:37;9.40;75.40
53962;DHT22;39868;53.398;6.564;2023-12-22T06:54:04;9.40;74.20
53962;DHT22;39868;53.398;6.564;2023-12-22T06:56:34;9.40;74.40
53962;DHT22;39868;53.398;6.564;2023-12-22T06:59:02;9.40;75.60
53962;DHT22;39868;53.398;6.564;2023-12-22T07:01:31;9.30;76.10
53962;DHT22;39868;53.398;6.564;2023-12-22T07:03:59;9.20;77.30
53962;DHT22;39868;53.398;6.564;2023-12-22T07:06:29;9.10;78.00
53962;DHT22;39868;53.398;6.564;2023-12-22T07:08:57;8.90;78.50
53962;DHT22;39868;53.398;6.564;2023-12-22T07:11:37;8.80;78.70
53962;DHT22;39868;53.398;6.564;2023-12-22T07:14:04;8.60;79.60
53962;DHT22;39868;53.398;6.564;2023-12-22T07:16:33;8.40;79.90
53962;DHT22;39868;53.398;6.564;2023-12-22T07:19:01;8.30;80.10
53962;DHT22;39868;53.398;6.564;2023-12-22T07:21:29;8.20;80.40
53962;DHT22;39868;53.398;6.564;2023-12-22T07:23:56;8.10;80.70
53962;DHT22;39868;53.398;6.564;2023-12-22T07:26:26;8.10;81.70
53962;DHT22;39868;53.398;6.564;2023-12-22T07:28:54;8.00;81.90
53962;DHT22;39868;53.398;6.564;2023-12-22T07:31:21;8.00;82.20
53962;DHT22;39868;53.398;6.564;2023-12-22T07:33:48;7.90;82.30
53962;DHT22;39868;53.398;6.564;2023-12-22T07:36:16;7.90;82.80
53962;DHT22;39868;53.398;6.564;2023-12-22T07:38:46;7.90;82.90
53962;DHT22;39868;53.398;6.564;2023-12-22T07:41:13;7.90;84.40
53962;DHT22;39868;53.398;6.564;2023-12-22T07:43:43;8.00;84.00
53962;DHT22;39868;53.398;6.564;2023-12-22T07:46:20;8.00;84.10
53962;DHT22;39868;53.398;6.564;2023-12-22T07:48:50;8.00;84.10
53962;DHT22;39868;53.398;6.564;2023-12-22T07:51:18;8.00;84.00
53962;DHT22;39868;53.398;6.564;2023-12-22T07:53:46;8.00;83.70
53962;DHT22;39868;53.398;6.564;2023-12-22T07:56:13;8.10;83.60
53962;DHT22;39868;53.398;6.564;2023-12-22T07:58:40;8.10;83.60
53962;DHT22;39868;53.398;6.564;2023-12-22T08:01:08;8.10;83.50
53962;DHT22;39868;53.398;6.564;2023-12-22T08:03:35;8.10;83.50
53962;DHT22;39868;53.398;6.564;2023-12-22T08:06:04;8.20;83.40
53962;DHT22;39868;53.398;6.564;2023-12-22T08:08:33;8.20;83.50
53962;DHT22;39868;53.398;6.564;2023-12-22T08:11:01;8.20;83.60
53962;DHT22;39868;53.398;6.564;2023-12-22T08:13:28;8.20;83.70
53962;DHT22;39868;53.398;6.564;2023-12-22T08:15:56;8.30;84.00
53962;DHT22;39868;53.398;6.564;2023-12-22T08:18:23;8.40;84.20
53962;DHT22;39868;53.398;6.564;2023-12-22T08:20:50;8.40;84.40
53962;DHT22;39868;53.398;6.564;2023-12-22T08:23:18;8.40;84.40
53962;DHT22;39868;53.398;6.564;2023-12-22T08:25:46;8.50;84.40
53962;DHT22;39868;53.398;6.564;2023-12-22T08:28:15;8.50;84.30
53962;DHT22;39868;53.398;6.564;2023-12-22T08:30:42;8.50;84.30
53962;DHT22;39868;53.398;6.564;2023-12-22T08:33:10;8.60;84.20
53962;DHT22;39868;53.398;6.564;2023-12-22T08:35:37;8.60;84.10
53962;DHT22;39868;53.398;6.564;2023-12-22T08:38:04;8.70;84.10
53962;DHT22;39868;53.398;6.564;2023-12-22T08:40:32;8.70;84.10
53962;DHT22;39868;53.398;6.564;2023-12-22T08:43:00;8.70;84.20
53962;DHT22;39868;53.398;6.564;2023-12-22T08:45:28;8.80;84.20
53962;DHT22;39868;53.398;6.564;2023-12-22T08:47:56;8.80;84.20
53962;DHT22;39868;53.398;6.564;2023-12-22T08:50:24;8.80;84.10
53962;DHT22;39868;53.398;6.564;2023-12-22T08:52:52;8.80;84.10
53962;DHT22;39868;53.398;6.564;2023-12-22T08:55:20;8.90;84.00
53962;DHT22;39868;53.398;6.564;2023-12-22T08:57:47;8.90;84.00
53962;DHT22;39868;53.398;6.564;2023-12-22T09:00:25;8.90;84.00
53962;DHT22;39868;53.398;6.564;2023-12-22T09:02:53;9.00;84.10
53962;DHT22;39868;53.398;6.564;2023-12-22T09:05:21;9.00;84.10
53962;DHT22;39868;53.398;6.564;2023-12-22T09:07:49;9.10;84.10
53962;DHT22;39868;53.398;6.564;2023-12-22T09:10:17;9.10;84.10
53962;DHT22;39868;53.398;6.564;2023-12-22T09:12:44;9.10;84.10
53962;DHT22;39868;53.398;6.564;2023-12-22T09:15:12;9.20;84.20
53962;DHT22;39868;53.398;6.564;2023-12-22T09:17:40;9.20;84.10
53962;DHT22;39868;53.398;6.564;2023-12-22T09:20:12;9.30;84.70
53962;DHT22;39868;53.398;6.564;2023-12-22T09:22:39;9.40;84.30
53962;DHT22;39868;53.398;6.564;2023-12-22T09:25:07;9.40;84.30
53962;DHT22;39868;53.398;6.564;2023-12-22T09:27:36;9.50;84.20
53962;DHT22;39868;53.398;6.564;2023-12-22T09:30:03;9.50;84.10
53962;DHT22;39868;53.398;6.564;2023-12-22T09:32:34;9.50;83.90
53962;DHT22;39868;53.398;6.564;2023-12-22T09:35:02;9.50;83.80
53962;DHT22;39868;53.398;6.564;2023-12-22T09:37:30;9.60;83.90
53962;DHT22;39868;53.398;6.564;2023-12-22T09:39:57;9.60;83.80
53962;DHT22;39868;53.398;6.564;2023-12-22T09:42:25;9.60;84.30
53962;DHT22;39868;53.398;6.564;2023-12-22T09:44:55;9.70;83.80
53962;DHT22;39868;53.398;6.564;2023-12-22T09:47:24;9.70;83.80
53962;DHT22;39868;53.398;6.564;2023-12-22T09:49:54;9.70;83.80
53962;DHT22;39868;53.398;6.564;2023-12-22T09:52:22;9.80;83.80
53962;DHT22;39868;53.398;6.564;2023-12-22T09:54:50;9.80;83.70
53962;DHT22;39868;53.398;6.564;2023-12-22T09:57:17;9.80;83.70
53962;DHT22;39868;53.398;6.564;2023-12-22T09:59:54;9.80;83.70
53962;DHT22;39868;53.398;6.564;2023-12-22T10:02:25;9.90;83.80
53962;DHT22;39868;53.398;6.564;2023-12-22T10:04:56;9.90;83.70
53962;DHT22;39868;53.398;6.564;2023-12-22T10:07:24;9.90;84.20
53962;DHT22;39868;53.398;6.564;2023-12-22T10:09:53;10.00;83.60
53962;DHT22;39868;53.398;6.564;2023-12-22T10:12:22;10.00;83.50
53962;DHT22;39868;53.398;6.564;2023-12-22T10:14:51;10.00;83.50
53962;DHT22;39868;53.398;6.564;2023-12-22T10:17:20;10.20;83.50
53962;DHT22;39868;53.398;6.564;2023-12-22T10:19:47;10.10;83.50
53962;DHT22;39868;53.398;6.564;2023-12-22T10:22:14;10.10;83.30
53962;DHT22;39868;53.398;6.564;2023-12-22T10:24:45;10.10;83.20
53962;DHT22;39868;53.398;6.564;2023-12-22T10:27:22;10.20;83.30
53962;DHT22;39868;53.398;6.564;2023-12-22T10:29:50;10.20;83.10
53962;DHT22;39868;53.398;6.564;2023-12-22T10:32:21;10.20;83.00
53962;DHT22;39868;53.398;6.564;2023-12-22T10:34:51;10.20;82.90
53962;DHT22;39868;53.398;6.564;2023-12-22T10:37:18;10.20;82.60
53962;DHT22;39868;53.398;6.564;2023-12-22T10:39:47;10.20;83.00
53962;DHT22;39868;53.398;6.564;2023-12-22T10:42:16;10.30;82.40
53962;DHT22;39868;53.398;6.564;2023-12-22T10:44:45;10.30;82.30
53962;DHT22;39868;53.398;6.564;2023-12-22T10:47:15;10.30;82.30
53962;DHT22;39868;53.398;6.564;2023-12-22T10:49:45;10.30;82.40
53962;DHT22;39868;53.398;6.564;2023-12-22T10:52:17;10.40;82.40
53962;DHT22;39868;53.398;6.564;2023-12-22T10:54:45;10.40;82.40
53962;DHT22;39868;53.398;6.564;2023-12-22T10:57:12;10.40;82.40
53962;DHT22;39868;53.398;6.564;2023-12-22T10:59:45;10.40;82.30
53962;DHT22;39868;53.398;6.564;2023-12-22T11:02:27;10.40;81.90
53962;DHT22;39868;53.398;6.564;2023-12-22T11:05:01;10.40;81.90
53962;DHT22;39868;53.398;6.564;2023-12-22T11:07:30;10.50;82.00
53962;DHT22;39868;53.398;6.564;2023-12-22T11:10:03;10.50;82.00
53962;DHT22;39868;53.398;6.564;2023-12-22T11:12:38;10.50;81.90
53962;DHT22;39868;53.398;6.564;2023-12-22T11:15:06;10.40;81.90
53962;DHT22;39868;53.398;6.564;2023-12-22T11:17:35;10.40;81.90
53962;DHT22;39868;53.398;6.564;2023-12-22T11:20:12;10.40;81.90
53962;DHT22;39868;53.398;6.564;2023-12-22T11:22:42;10.50;81.80
53962;DHT22;39868;53.398;6.564;2023-12-22T11:25:17;10.50;81.80
53962;DHT22;39868;53.398;6.564;2023-12-22T11:27:46;10.50;82.00
53962;DHT22;39868;53.398;6.564;2023-12-22T11:30:16;10.50;82.10
53962;DHT22;39868;53.398;6.564;2023-12-22T11:32:45;10.50;82.20
53962;DHT22;39868;53.398;6.564;2023-12-22T11:35:14;10.50;82.10
53962;DHT22;39868;53.398;6.564;2023-12-22T11:37:45;10.60;82.00
53962;DHT22;39868;53.398;6.564;2023-12-22T11:40:14;10.60;82.00
53962;DHT22;39868;53.398;6.564;2023-12-22T11:42:45;10.60;82.10
53962;DHT22;39868;53.398;6.564;2023-12-22T11:45:18;10.60;82.10
53962;DHT22;39868;53.398;6.564;2023-12-22T11:47:46;10.70;82.20
53962;DHT22;39868;53.398;6.564;2023-12-22T11:50:28;10.70;82.20
53962;DHT22;39868;53.398;6.564;2023-12-22T11:56:05;10.70;82.20
53962;DHT22;39868;53.398;6.564;2023-12-22T12:01:12;10.70;82.20
53962;DHT22;39868;53.398;6.564;2023-12-22T12:03:48;10.80;82.20
53962;DHT22;39868;53.398;6.564;2023-12-22T12:06:30;10.80;82.20
53962;DHT22;39868;53.398;6.564;2023-12-22T12:08:59;10.80;82.10
53962;DHT22;39868;53.398;6.564;2023-12-22T12:14:26;10.80;82.10
53962;DHT22;39868;53.398;6.564;2023-12-22T12:17:03;10.80;82.10
53962;DHT22;39868;53.398;6.564;2023-12-22T12:19:39;10.80;82.20
53962;DHT22;39868;53.398;6.564;2023-12-22T12:22:11;10.70;82.20
53962;DHT22;39868;53.398;6.564;2023-12-22T12:24:41;10.70;82.20
53962;DHT22;39868;53.398;6.564;2023-12-22T12:27:09;10.80;82.30
53962;DHT22;39868;53.398;6.564;2023-12-22T12:29:36;10.80;82.20
53962;DHT22;39868;53.398;6.564;2023-12-22T12:32:07;10.80;82.20
53962;DHT22;39868;53.398;6.564;2023-12-22T12:34:49;10.80;82.20
53962;DHT22;39868;53.398;6.564;2023-12-22T12:37:17;10.80;82.30
53962;DHT22;39868;53.398;6.564;2023-12-22T12:39:48;10.80;82.30
53962;DHT22;39868;53.398;6.564;2023-12-22T12:42:17;10.80;82.30
53962;DHT22;39868;53.398;6.564;2023-12-22T12:44:45;10.80;82.40
53962;DHT22;39868;53.398;6.564;2023-12-22T12:47:15;10.80;82.40
53962;DHT22;39868;53.398;6.564;2023-12-22T12:49:43;10.80;82.40
53962;DHT22;39868;53.398;6.564;2023-12-22T12:52:13;10.70;82.30
53962;DHT22;39868;53.398;6.564;2023-12-22T12:54:42;10.70;82.20
53962;DHT22;39868;53.398;6.564;2023-12-22T12:57:15;10.70;82.10
53962;DHT22;39868;53.398;6.564;2023-12-22T12:59:50;10.70;82.10
53962;DHT22;39868;53.398;6.564;2023-12-22T13:02:18;10.70;82.10
53962;DHT22;39868;53.398;6.564;2023-12-22T13:04:46;10.70;82.20
53962;DHT22;39868;53.398;6.564;2023-12-22T13:07:14;10.70;82.20
53962;DHT22;39868;53.398;6.564;2023-12-22T13:09:51;10.70;82.80
53962;DHT22;39868;53.398;6.564;2023-12-22T13:12:22;10.60;82.30
53962;DHT22;39868;53.398;6.564;2023-12-22T13:14:50;10.60;82.40
53962;DHT22;39868;53.398;6.564;2023-12-22T13:17:17;10.60;82.50
53962;DHT22;39868;53.398;6.564;2023-12-22T13:19:45;10.60;82.70
53962;DHT22;39868;53.398;6.564;2023-12-22T13:22:13;10.60;82.80
53962;DHT22;39868;53.398;6.564;2023-12-22T13:24:41;10.50;82.90
53962;DHT22;39868;53.398;6.564;2023-12-22T13:27:08;10.50;83.00
53962;DHT22;39868;53.398;6.564;2023-12-22T13:29:43;10.50;83.00
53962;DHT22;39868;53.398;6.564;2023-12-22T13:32:21;10.40;83.30
53962;DHT22;39868;53.398;6.564;2023-12-22T13:34:53;10.40;83.50
53962;DHT22;39868;53.398;6.564;2023-12-22T13:37:21;10.30;83.40
53962;DHT22;39868;53.398;6.564;2023-12-22T13:39:50;10.30;83.40
53962;DHT22;39868;53.398;6.564;2023-12-22T13:42:18;10.20;83.40
53962;DHT22;39868;53.398;6.564;2023-12-22T13:44:48;10.10;83.40
53962;DHT22;39868;53.398;6.564;2023-12-22T13:47:17;10.00;83.50
53962;DHT22;39868;53.398;6.564;2023-12-22T13:49:45;9.90;83.40
53962;DHT22;39868;53.398;6.564;2023-12-22T13:52:29;9.80;83.50
53962;DHT22;39868;53.398;6.564;2023-12-22T13:54:59;9.70;83.60
53962;DHT22;39868;53.398;6.564;2023-12-22T13:57:29;9.60;83.70
53962;DHT22;39868;53.398;6.564;2023-12-22T13:59:56;9.50;83.80
53962;DHT22;39868;53.398;6.564;2023-12-22T14:02:23;9.50;84.00
53962;DHT22;39868;53.398;6.564;2023-12-22T14:04:52;9.40;84.30
53962;DHT22;39868;53.398;6.564;2023-12-22T14:07:19;9.30;84.40
53962;DHT22;39868;53.398;6.564;2023-12-22T14:09:47;9.30;84.70
53962;DHT22;39868;53.398;6.564;2023-12-22T14:12:14;9.20;84.70
53962;DHT22;39868;53.398;6.564;2023-12-22T14:14:54;9.20;85.10
53962;DHT22;39868;53.398;6.564;2023-12-22T14:17:21;9.20;85.30
53962;DHT22;39868;53.398;6.564;2023-12-22T14:19:49;9.10;85.20
53962;DHT22;39868;53.398;6.564;2023-12-22T14:22:16;9.10;85.30
53962;DHT22;39868;53.398;6.564;2023-12-22T14:24:44;9.20;85.30
53962;DHT22;39868;53.398;6.564;2023-12-22T14:27:11;9.10;85.30
53962;DHT22;39868;53.398;6.564;2023-12-22T14:29:38;9.20;85.30
53962;DHT22;39868;53.398;6.564;2023-12-22T14:32:07;9.20;85.40
53962;DHT22;39868;53.398;6.564;2023-12-22T14:34:35;9.20;85.40
53962;DHT22;39868;53.398;6.564;2023-12-22T14:37:04;9.20;85.40
53962;DHT22;39868;53.398;6.564;2023-12-22T14:39:31;9.20;85.40
53962;DHT22;39868;53.398;6.564;2023-12-22T14:41:59;9.20;85.40
53962;DHT22;39868;53.398;6.564;2023-12-22T14:44:26;9.20;85.40
53962;DHT22;39868;53.398;6.564;2023-12-22T14:46:53;9.30;85.50
53962;DHT22;39868;53.398;6.564;2023-12-22T14:49:21;9.30;85.40
53962;DHT22;39868;53.398;6.564;2023-12-22T14:51:48;9.30;85.50
53962;DHT22;39868;53.398;6.564;2023-12-22T14:54:21;9.30;85.50
53962;DHT22;39868;53.398;6.564;2023-12-22T14:56:48;9.30;85.50
53962;DHT22;39868;53.398;6.564;2023-12-22T14:59:16;9.30;85.60
53962;DHT22;39868;53.398;6.564;2023-12-22T15:01:44;9.30;85.60
53962;DHT22;39868;53.398;6.564;2023-12-22T15:04:15;9.30;85.50
53962;DHT22;39868;53.398;6.564;2023-12-22T15:06:45;9.30;85.50
53962;DHT22;39868;53.398;6.564;2023-12-22T15:09:17;9.30;85.50
53962;DHT22;39868;53.398;6.564;2023-12-22T15:11:45;9.30;85.60
53962;DHT22;39868;53.398;6.564;2023-12-22T15:14:13;9.30;85.50
53962;DHT22;39868;53.398;6.564;2023-12-22T15:16:43;9.40;85.60
53962;DHT22;39868;53.398;6.564;2023-12-22T15:19:14;9.40;85.70
53962;DHT22;39868;53.398;6.564;2023-12-22T15:21:42;9.40;85.70
53962;DHT22;39868;53.398;6.564;2023-12-22T15:24:09;9.40;85.70
53962;DHT22;39868;53.398;6.564;2023-12-22T15:26:37;9.40;85.80
53962;DHT22;39868;53.398;6.564;2023-12-22T15:29:04;9.40;85.90
53962;DHT22;39868;53.398;6.564;2023-12-22T15:31:32;9.40;86.10
53962;DHT22;39868;53.398;6.564;2023-12-22T15:34:03;9.40;86.10
53962;DHT22;39868;53.398;6.564;2023-12-22T15:36:33;9.40;86.20
53962;DHT22;39868;53.398;6.564;2023-12-22T15:39:01;9.50;86.50
53962;DHT22;39868;53.398;6.564;2023-12-22T15:41:29;9.50;86.60
53962;DHT22;39868;53.398;6.564;2023-12-22T15:43:59;9.50;86.80
53962;DHT22;39868;53.398;6.564;2023-12-22T15:46:27;9.50;87.00
53962;DHT22;39868;53.398;6.564;2023-12-22T15:48:54;9.60;87.20
53962;DHT22;39868;53.398;6.564;2023-12-22T15:51:22;9.60;87.30
53962;DHT22;39868;53.398;6.564;2023-12-22T15:53:50;9.60;87.20
53962;DHT22;39868;53.398;6.564;2023-12-22T15:56:17;9.70;87.30
53962;DHT22;39868;53.398;6.564;2023-12-22T15:58:45;9.70;87.10